Time;durP1;ratioP1;P1;durP2;ratioP2;P2;SDS_P1;SDS_P2;PMS_P1;PMS_P2;Temp;Humidity;BMP_temperature;BMP_pressure;BME280_temperature;BME280_humidity;BME280_pressure;Samples;Min_cycle;Max_cycle;Signal;HPM_P1;HPM_P2
2022/05/14 00:01:10;;;;;;;6.30;2.10;;;13.70;99.90;;;;;;5081507;28;20285;-65
2022/05/14 00:03:38;;;;;;;7.30;2.05;;;13.70;99.90;;;;;;5076013;28;20041;-66
2022/05/14 00:06:07;;;;;;;7.63;2.45;;;13.70;99.90;;;;;;5075833;28;20098;-65
2022/05/14 00:08:33;;;;;;;7.20;2.30;;;13.70;99.90;;;;;;5080372;28;20043;-66
2022/05/14 00:13:43;;;;;;;7.80;2.50;;;13.70;99.90;;;;;;5075091;28;20052;-67
2022/05/14 00:16:13;;;;;;;6.82;2.08;;;13.60;99.90;;;;;;5082996;28;20082;-67
2022/05/14 00:18:39;;;;;;;8.02;2.50;;;13.60;99.90;;;;;;5085932;28;20044;-67
2022/05/14 00:21:06;;;;;;;6.95;2.38;;;13.60;99.90;;;;;;5082884;28;20141;-67
2022/05/14 00:23:31;;;;;;;9.27;2.65;;;13.60;99.90;;;;;;5081631;28;20789;-65
2022/05/14 00:25:57;;;;;;;7.85;2.72;;;13.60;99.90;;;;;;5085973;28;20166;-65
2022/05/14 00:28:23;;;;;;;9.60;2.45;;;13.50;99.90;;;;;;5072973;28;20044;-65
2022/05/14 00:30:49;;;;;;;6.38;2.22;;;13.60;99.90;;;;;;5076063;28;20435;-65
2022/05/14 00:33:15;;;;;;;8.23;2.35;;;13.60;99.90;;;;;;5077655;28;20123;-67
2022/05/14 00:35:41;;;;;;;7.22;2.65;;;13.60;99.90;;;;;;5077677;28;20136;-66
2022/05/14 00:38:08;;;;;;;9.73;2.40;;;13.60;99.90;;;;;;5082410;28;20028;-65
2022/05/14 00:41:02;;;;;;;8.40;2.60;;;13.60;99.90;;;;;;5083134;28;20066;-65
2022/05/14 00:43:28;;;;;;;7.53;2.40;;;13.60;99.90;;;;;;5081080;28;20044;-65
2022/05/14 00:46:16;;;;;;;10.07;2.83;;;13.60;99.90;;;;;;5081343;28;20072;-65
2022/05/14 00:48:43;;;;;;;6.88;2.50;;;13.60;99.90;;;;;;5070084;28;20486;-65
2022/05/14 00:51:15;;;;;;;8.85;2.78;;;13.50;99.90;;;;;;5087477;28;20044;-65
2022/05/14 00:53:46;;;;;;;9.60;2.85;;;13.50;99.90;;;;;;5078229;28;20516;-66
2022/05/14 00:56:19;;;;;;;7.22;2.47;;;13.40;99.90;;;;;;5082423;28;20112;-66
2022/05/14 00:59:13;;;;;;;11.02;2.97;;;13.40;99.90;;;;;;5082234;28;20094;-65
2022/05/14 01:01:38;;;;;;;12.88;3.08;;;13.40;99.90;;;;;;5086076;28;20075;-66
2022/05/14 01:04:05;;;;;;;10.52;3.30;;;13.40;99.90;;;;;;5086421;28;20060;-65
2022/05/14 01:06:33;;;;;;;9.18;3.13;;;13.30;99.90;;;;;;5080093;28;20161;-65
2022/05/14 01:08:59;;;;;;;8.52;2.70;;;13.40;99.90;;;;;;5080981;28;20041;-67
2022/05/14 01:11:27;;;;;;;10.77;3.05;;;13.40;99.90;;;;;;5082086;28;20028;-66
2022/05/14 01:13:53;;;;;;;9.43;2.80;;;13.40;99.90;;;;;;5086852;28;20072;-66
2022/05/14 01:16:20;;;;;;;9.35;2.65;;;13.30;99.90;;;;;;5082839;28;20442;-66
2022/05/14 01:18:46;;;;;;;10.13;2.72;;;13.40;99.90;;;;;;5083408;28;20075;-66
2022/05/14 01:21:40;;;;;;;8.05;2.90;;;13.40;99.90;;;;;;5090690;28;20036;-67
2022/05/14 01:27:08;;;;;;;10.88;3.30;;;13.30;99.90;;;;;;5080762;28;20194;-65
2022/05/14 01:29:34;;;;;;;10.38;3.00;;;13.30;99.90;;;;;;5084459;28;20179;-66
2022/05/14 01:32:00;;;;;;;10.60;3.47;;;13.30;99.90;;;;;;5080948;28;20040;-66
2022/05/14 01:34:33;;;;;;;11.30;3.35;;;13.30;99.90;;;;;;5085706;28;20071;-65
2022/05/14 01:37:00;;;;;;;10.50;3.50;;;13.20;99.90;;;;;;5088982;28;20400;-66
2022/05/14 01:39:27;;;;;;;9.45;3.08;;;13.20;99.90;;;;;;5082192;28;20117;-65
2022/05/14 01:41:52;;;;;;;9.75;3.30;;;13.20;99.90;;;;;;5084583;28;20071;-66
2022/05/14 01:44:18;;;;;;;10.65;3.30;;;13.20;99.90;;;;;;5083749;28;20510;-65
2022/05/14 01:46:44;;;;;;;10.27;3.70;;;13.10;99.90;;;;;;5080127;28;20093;-65
2022/05/14 01:49:10;;;;;;;11.02;3.20;;;13.10;99.90;;;;;;5087046;28;20039;-65
2022/05/14 01:51:36;;;;;;;10.68;3.50;;;13.10;99.90;;;;;;5085882;28;20059;-66
2022/05/14 01:54:02;;;;;;;11.35;3.85;;;13.00;99.90;;;;;;5088155;28;20048;-67
2022/05/14 01:56:28;;;;;;;11.45;3.25;;;13.00;99.90;;;;;;5087010;28;20135;-65
2022/05/14 01:58:53;;;;;;;10.75;3.55;;;13.00;99.90;;;;;;5086450;28;20525;-65
2022/05/14 02:01:31;;;;;;;12.00;3.05;;;12.90;99.90;;;;;;5075923;28;20052;-66
2022/05/14 02:04:06;;;;;;;12.43;3.38;;;13.00;99.90;;;;;;5087179;28;20040;-65
2022/05/14 02:06:33;;;;;;;12.45;3.78;;;13.00;99.90;;;;;;5082933;28;20063;-65
2022/05/14 02:08:59;;;;;;;13.75;3.80;;;13.00;99.90;;;;;;5081079;28;20040;-66
2022/05/14 02:11:26;;;;;;;15.02;4.00;;;12.90;99.90;;;;;;5088878;28;20052;-65
2022/05/14 02:13:53;;;;;;;13.43;4.10;;;12.90;99.90;;;;;;5082574;28;20308;-66
2022/05/14 02:16:19;;;;;;;11.65;3.63;;;12.90;99.90;;;;;;5084483;28;20059;-66
2022/05/14 02:18:45;;;;;;;10.73;3.80;;;12.90;99.90;;;;;;5078327;28;20058;-67
2022/05/14 02:21:11;;;;;;;12.32;4.30;;;13.00;99.90;;;;;;5090096;28;20040;-65
2022/05/14 02:23:38;;;;;;;13.05;3.78;;;13.00;99.90;;;;;;5086908;28;20044;-65
2022/05/14 02:26:09;;;;;;;12.80;4.43;;;13.00;99.90;;;;;;5074047;28;20063;-65
2022/05/14 02:28:35;;;;;;;12.88;3.80;;;13.00;99.90;;;;;;5084826;28;20505;-65
2022/05/14 02:31:01;;;;;;;14.40;4.82;;;13.00;99.90;;;;;;5089909;28;20077;-65
2022/05/14 02:33:27;;;;;;;12.38;4.25;;;12.90;99.90;;;;;;5084254;28;20032;-66
2022/05/14 02:35:52;;;;;;;11.10;4.05;;;12.90;99.90;;;;;;5082161;28;20040;-65
2022/05/14 02:38:18;;;;;;;13.68;4.18;;;13.00;99.90;;;;;;5086431;28;20194;-66
2022/05/14 02:40:44;;;;;;;11.50;3.88;;;13.00;99.90;;;;;;5088870;28;20107;-65
2022/05/14 02:43:10;;;;;;;13.77;4.82;;;13.00;99.90;;;;;;5085024;28;20040;-65
2022/05/14 02:45:36;;;;;;;12.32;4.68;;;13.00;99.90;;;;;;5086122;28;20165;-65
2022/05/14 02:48:02;;;;;;;17.88;5.22;;;13.00;99.90;;;;;;5084205;28;20588;-68
2022/05/14 02:50:28;;;;;;;14.35;4.18;;;12.90;99.90;;;;;;5083882;28;20056;-65
2022/05/14 02:52:54;;;;;;;13.18;3.80;;;12.90;99.90;;;;;;5089244;28;20040;-66
2022/05/14 02:55:20;;;;;;;15.30;4.75;;;12.90;99.90;;;;;;5084192;28;20167;-67
2022/05/14 02:57:46;;;;;;;11.05;4.15;;;12.90;99.90;;;;;;5089074;28;20062;-66
2022/05/14 03:00:15;;;;;;;14.07;4.90;;;12.90;99.90;;;;;;5078787;28;20044;-66
2022/05/14 03:02:40;;;;;;;14.00;4.60;;;12.90;99.90;;;;;;5077529;28;20154;-65
2022/05/14 03:05:07;;;;;;;10.63;4.20;;;12.90;99.90;;;;;;5083286;28;20403;-66
2022/05/14 03:07:32;;;;;;;13.23;4.57;;;12.80;99.90;;;;;;5077584;28;20104;-65
2022/05/14 03:09:58;;;;;;;12.40;4.80;;;12.80;99.90;;;;;;5085850;28;20182;-67
2022/05/14 03:12:24;;;;;;;15.05;4.70;;;12.80;99.90;;;;;;5075882;28;20048;-66
2022/05/14 03:14:50;;;;;;;12.13;4.30;;;12.80;99.90;;;;;;5082526;28;20062;-65
2022/05/14 03:17:17;;;;;;;15.27;4.72;;;12.70;99.90;;;;;;5086399;28;20492;-65
2022/05/14 03:19:42;;;;;;;16.00;5.43;;;12.70;99.90;;;;;;5078965;28;20135;-67
2022/05/14 03:22:09;;;;;;;14.98;4.95;;;12.70;99.90;;;;;;5087618;28;20178;-66
2022/05/14 03:24:36;;;;;;;12.65;4.35;;;12.60;99.90;;;;;;5077756;28;20064;-66
2022/05/14 03:27:06;;;;;;;13.77;4.72;;;12.60;99.90;;;;;;5081620;28;20063;-67
2022/05/14 03:29:33;;;;;;;11.00;4.88;;;12.60;99.90;;;;;;5083522;28;20125;-65
2022/05/14 03:31:59;;;;;;;13.85;4.68;;;12.50;99.90;;;;;;5076854;28;20385;-65
2022/05/14 03:34:26;;;;;;;13.63;4.68;;;12.50;99.90;;;;;;5089461;28;20048;-64
2022/05/14 03:36:51;;;;;;;13.10;5.20;;;12.50;99.90;;;;;;5082544;28;20036;-66
2022/05/14 03:39:17;;;;;;;15.45;4.88;;;12.40;99.90;;;;;;5083423;28;20433;-66
2022/05/14 03:41:44;;;;;;;14.90;5.03;;;12.40;99.90;;;;;;5085695;28;20040;-65
2022/05/14 03:44:10;;;;;;;15.60;4.68;;;12.30;99.90;;;;;;5085539;28;20120;-65
2022/05/14 03:46:36;;;;;;;17.38;5.68;;;12.30;99.90;;;;;;5080690;28;20039;-65
2022/05/14 03:49:03;;;;;;;16.55;5.13;;;12.30;99.90;;;;;;5084828;28;20044;-65
2022/05/14 03:51:29;;;;;;;12.07;5.25;;;12.30;99.90;;;;;;5086667;28;20044;-64
2022/05/14 03:53:55;;;;;;;14.15;5.55;;;12.30;99.90;;;;;;5079030;28;20086;-64
2022/05/14 03:56:21;;;;;;;14.95;5.55;;;12.30;99.90;;;;;;5082472;28;20076;-64
2022/05/14 03:58:47;;;;;;;13.60;5.22;;;12.30;99.90;;;;;;5088663;28;20116;-65
2022/05/14 04:01:12;;;;;;;12.60;4.95;;;12.30;99.90;;;;;;5083475;28;20514;-65
2022/05/14 04:03:38;;;;;;;13.73;4.90;;;12.30;99.90;;;;;;5078691;28;20047;-64
2022/05/14 04:06:05;;;;;;;11.80;5.13;;;12.30;99.90;;;;;;5079667;28;20330;-65
2022/05/14 04:08:31;;;;;;;10.90;4.70;;;12.30;99.90;;;;;;5088116;28;20102;-65
2022/05/14 04:10:56;;;;;;;13.60;5.43;;;12.40;99.90;;;;;;5081896;28;20040;-65
2022/05/14 04:13:22;;;;;;;10.15;4.60;;;12.40;99.90;;;;;;5075450;28;20528;-64
2022/05/14 04:15:48;;;;;;;12.98;5.10;;;12.40;99.90;;;;;;5081187;28;20104;-65
2022/05/14 04:18:14;;;;;;;16.75;5.72;;;12.40;99.90;;;;;;5078727;28;20127;-65
2022/05/14 04:20:40;;;;;;;13.98;5.25;;;12.30;99.90;;;;;;5080544;28;20078;-64
2022/05/14 04:23:07;;;;;;;15.77;5.38;;;12.30;99.90;;;;;;5081578;28;20423;-64
2022/05/14 04:25:32;;;;;;;11.57;4.85;;;12.30;99.90;;;;;;5084464;28;20343;-64
2022/05/14 04:27:59;;;;;;;12.48;5.50;;;12.30;99.90;;;;;;5082412;28;20044;-64
2022/05/14 04:30:25;;;;;;;16.13;5.35;;;12.30;99.90;;;;;;5084053;28;20070;-64
2022/05/14 04:32:51;;;;;;;15.07;5.07;;;12.40;99.90;;;;;;5089426;28;20036;-64
2022/05/14 04:35:17;;;;;;;13.00;5.10;;;12.40;99.90;;;;;;5082056;28;20166;-66
2022/05/14 04:37:43;;;;;;;12.93;5.18;;;12.40;99.90;;;;;;5084984;28;20036;-65
2022/05/14 04:40:11;;;;;;;13.57;5.80;;;12.40;99.90;;;;;;5073047;28;20067;-65
2022/05/14 04:42:38;;;;;;;13.10;4.55;;;12.40;99.90;;;;;;5083956;28;20035;-67
2022/05/14 04:45:05;;;;;;;11.73;5.13;;;12.50;99.90;;;;;;5078921;28;20047;-64
2022/05/14 04:47:31;;;;;;;13.05;5.35;;;12.60;99.90;;;;;;5079237;28;20032;-67
2022/05/14 04:49:56;;;;;;;17.55;5.50;;;12.60;99.90;;;;;;5075590;28;20050;-67
2022/05/14 04:52:22;;;;;;;12.20;5.05;;;12.70;99.90;;;;;;5078379;28;20036;-65
2022/05/14 04:54:47;;;;;;;12.90;5.57;;;12.80;99.90;;;;;;5083666;28;20040;-66
2022/05/14 04:57:13;;;;;;;17.58;5.85;;;12.90;99.90;;;;;;5086301;28;20052;-66
2022/05/14 04:59:39;;;;;;;15.45;5.72;;;13.00;99.90;;;;;;5082990;28;20055;-65
2022/05/14 05:04:49;;;;;;;12.67;5.13;;;13.10;99.90;;;;;;5081826;28;20467;-64
2022/05/14 05:07:15;;;;;;;12.70;5.43;;;13.10;99.90;;;;;;5084478;28;20066;-66
2022/05/14 05:09:41;;;;;;;11.85;5.35;;;13.20;99.90;;;;;;5080708;28;20127;-65
2022/05/14 05:12:07;;;;;;;13.95;5.22;;;13.30;99.90;;;;;;5084820;28;20379;-65
2022/05/14 05:14:32;;;;;;;11.20;4.97;;;13.30;99.90;;;;;;5083234;28;20044;-64
2022/05/14 05:16:58;;;;;;;14.50;5.50;;;13.40;99.90;;;;;;5089356;28;20102;-64
2022/05/14 05:19:24;;;;;;;13.90;5.35;;;13.50;99.90;;;;;;5091171;28;20040;-65
2022/05/14 05:21:50;;;;;;;14.70;5.13;;;13.50;99.90;;;;;;5084304;28;20140;-64
2022/05/14 05:24:16;;;;;;;13.52;5.55;;;13.60;99.90;;;;;;5081993;28;20067;-64
2022/05/14 05:26:42;;;;;;;14.18;5.25;;;13.70;99.90;;;;;;5089439;28;20040;-64
2022/05/14 05:29:09;;;;;;;15.75;5.97;;;13.80;99.90;;;;;;5083861;28;20046;-64
2022/05/14 05:31:35;;;;;;;14.68;5.40;;;13.90;99.90;;;;;;5085891;28;20122;-64
2022/05/14 05:34:02;;;;;;;15.05;5.80;;;13.90;99.90;;;;;;5087376;28;20051;-64
2022/05/14 05:36:28;;;;;;;13.35;6.15;;;14.10;99.90;;;;;;5083508;28;20040;-66
2022/05/14 05:38:54;;;;;;;13.70;5.30;;;14.10;99.90;;;;;;5089716;28;20047;-64
2022/05/14 05:41:20;;;;;;;17.15;6.00;;;14.20;99.90;;;;;;5088973;28;20040;-64
2022/05/14 05:43:47;;;;;;;14.63;6.00;;;14.20;99.90;;;;;;5087097;28;20482;-65
2022/05/14 05:46:13;;;;;;;13.55;5.53;;;14.20;99.90;;;;;;5082591;28;20134;-65
2022/05/14 05:48:39;;;;;;;12.38;5.60;;;14.20;99.90;;;;;;5087165;28;20107;-63
2022/05/14 05:51:05;;;;;;;12.32;6.35;;;14.20;99.90;;;;;;5083490;28;20467;-64
2022/05/14 05:59:00;;;;;;;15.13;6.72;;;14.30;99.90;;;;;;5084217;28;20040;-65
2022/05/14 06:01:26;;;;;;;15.88;6.47;;;14.40;99.90;;;;;;5079201;28;20044;-63
2022/05/14 06:03:52;;;;;;;12.98;5.88;;;14.60;99.90;;;;;;5089471;28;20139;-64
2022/05/14 06:06:20;;;;;;;18.30;6.63;;;14.70;99.90;;;;;;5076447;28;20075;-66
2022/05/14 06:08:50;;;;;;;16.58;6.65;;;14.80;99.90;;;;;;5090743;28;20067;-64
2022/05/14 06:11:17;;;;;;;14.75;6.45;;;14.90;99.90;;;;;;5084023;28;20131;-64
2022/05/14 06:13:43;;;;;;;14.05;6.13;;;15.00;99.90;;;;;;5082024;28;20097;-65
2022/05/14 06:16:09;;;;;;;18.40;6.47;;;15.10;99.90;;;;;;5091296;28;20040;-63
2022/05/14 06:18:35;;;;;;;16.17;6.97;;;15.20;99.90;;;;;;5087235;28;20056;-65
2022/05/14 06:21:00;;;;;;;16.70;7.05;;;15.30;99.90;;;;;;5075842;28;20040;-65
2022/05/14 06:23:26;;;;;;;15.63;7.65;;;15.30;99.90;;;;;;5075203;28;20060;-64
2022/05/14 06:25:52;;;;;;;15.93;7.13;;;15.30;99.90;;;;;;5090488;28;20463;-65
2022/05/14 06:28:18;;;;;;;18.92;7.40;;;15.50;99.90;;;;;;5080316;28;20044;-63
2022/05/14 06:30:44;;;;;;;18.17;6.72;;;15.60;99.90;;;;;;5080167;28;20040;-63
2022/05/14 06:33:12;;;;;;;16.67;7.70;;;15.70;99.90;;;;;;5087402;28;20058;-63
2022/05/14 06:35:38;;;;;;;14.63;6.30;;;15.70;99.90;;;;;;5080574;28;20058;-63
2022/05/14 06:38:05;;;;;;;18.88;7.35;;;15.80;99.90;;;;;;5084194;28;20122;-62
2022/05/14 06:40:31;;;;;;;17.58;6.43;;;16.00;99.90;;;;;;5079185;28;20056;-63
2022/05/14 06:42:57;;;;;;;19.20;6.78;;;16.10;99.90;;;;;;5086765;28;20036;-62
2022/05/14 06:45:23;;;;;;;18.50;6.95;;;16.20;99.90;;;;;;5083151;28;20040;-63
2022/05/14 06:47:49;;;;;;;18.15;7.20;;;16.30;99.90;;;;;;5079152;28;20417;-63
2022/05/14 06:50:14;;;;;;;19.02;7.78;;;16.40;99.90;;;;;;5075712;28;20072;-63
2022/05/14 06:52:43;;;;;;;18.30;7.25;;;16.50;99.90;;;;;;5087532;28;20615;-63
2022/05/14 06:55:12;;;;;;;17.08;6.70;;;16.60;99.90;;;;;;5081163;28;20040;-64
2022/05/14 06:57:38;;;;;;;17.55;7.63;;;16.80;99.90;;;;;;5089285;28;20056;-64
2022/05/14 07:00:05;;;;;;;22.92;7.57;;;16.90;99.90;;;;;;5076218;28;20048;-64
2022/05/14 07:02:31;;;;;;;17.58;7.13;;;17.00;99.90;;;;;;5083399;28;20090;-66
2022/05/14 07:07:43;;;;;;;19.20;6.93;;;17.40;99.90;;;;;;5088951;28;20119;-65
2022/05/14 07:10:08;;;;;;;16.00;6.65;;;17.50;99.90;;;;;;5084958;28;20071;-63
2022/05/14 07:12:34;;;;;;;21.98;6.82;;;17.60;99.90;;;;;;5078566;28;20040;-64
2022/05/14 07:15:01;;;;;;;20.58;7.53;;;17.70;99.90;;;;;;5082653;28;20042;-64
2022/05/14 07:17:27;;;;;;;18.88;6.90;;;17.80;99.90;;;;;;5088779;28;20769;-64
2022/05/14 07:19:52;;;;;;;21.02;7.43;;;17.80;99.90;;;;;;5084023;28;20048;-64
2022/05/14 07:22:18;;;;;;;16.77;6.57;;;17.90;99.90;;;;;;5088879;28;20040;-63
2022/05/14 07:24:45;;;;;;;17.00;5.95;;;17.90;99.90;;;;;;5082240;28;20048;-65
2022/05/14 07:27:11;;;;;;;20.60;6.22;;;18.10;99.90;;;;;;5089075;28;20043;-64
2022/05/14 07:29:43;;;;;;;19.10;5.25;;;18.10;99.90;;;;;;5086777;28;20093;-64
2022/05/14 07:32:10;;;;;;;19.40;5.40;;;18.20;99.90;;;;;;5075796;28;20043;-64
2022/05/14 07:34:36;;;;;;;21.95;5.60;;;18.20;99.90;;;;;;5080915;28;20047;-64
2022/05/14 07:37:06;;;;;;;20.30;5.40;;;18.00;99.90;;;;;;5079980;28;20053;-64
2022/05/14 07:39:38;;;;;;;19.15;5.70;;;17.80;99.90;;;;;;5083296;28;20072;-64
2022/05/14 07:42:08;;;;;;;18.85;5.20;;;17.70;99.90;;;;;;5088087;28;20144;-64
2022/05/14 07:44:38;;;;;;;16.23;4.88;;;17.70;99.90;;;;;;5080489;28;20473;-64
2022/05/14 07:47:05;;;;;;;17.00;5.35;;;17.90;99.90;;;;;;5085743;28;20088;-64
2022/05/14 07:49:32;;;;;;;19.02;5.88;;;17.80;99.90;;;;;;5077087;28;20098;-64
2022/05/14 07:51:58;;;;;;;16.73;5.25;;;18.00;99.90;;;;;;5072276;28;20486;-64
2022/05/14 07:54:24;;;;;;;16.25;5.00;;;18.10;99.90;;;;;;5088756;28;20044;-64
2022/05/14 07:56:50;;;;;;;19.58;5.80;;;18.30;99.90;;;;;;5083788;28;20048;-63
2022/05/14 07:59:16;;;;;;;17.38;5.90;;;18.50;99.90;;;;;;5082773;28;20521;-65
2022/05/14 08:01:42;;;;;;;18.23;5.22;;;18.70;99.90;;;;;;5088466;28;20068;-63
2022/05/14 08:04:09;;;;;;;17.15;5.05;;;18.70;99.90;;;;;;5088791;28;20113;-63
2022/05/14 08:06:34;;;;;;;18.05;5.25;;;18.80;99.90;;;;;;5070358;28;20094;-65
2022/05/14 08:09:00;;;;;;;16.20;5.13;;;18.70;99.90;;;;;;5090533;28;20048;-63
2022/05/14 08:11:26;;;;;;;18.58;5.13;;;18.90;99.90;;;;;;5086362;28;20513;-64
2022/05/14 08:13:54;;;;;;;18.55;5.10;;;18.90;99.50;;;;;;5088191;28;20351;-65
2022/05/14 08:16:20;;;;;;;19.38;4.88;;;18.80;98.30;;;;;;5083668;28;20355;-64
2022/05/14 08:18:45;;;;;;;14.75;4.15;;;18.90;98.40;;;;;;5081505;28;20054;-63
2022/05/14 08:26:39;;;;;;;15.38;3.67;;;19.20;97.10;;;;;;5088183;28;20462;-65
2022/05/14 08:29:06;;;;;;;16.40;4.53;;;19.30;96.50;;;;;;5086335;28;20042;-66
2022/05/14 08:31:32;;;;;;;16.98;4.28;;;19.70;96.40;;;;;;5088494;28;20039;-63
2022/05/14 08:33:58;;;;;;;15.73;4.00;;;19.70;94.40;;;;;;5090004;28;20480;-62
2022/05/14 08:36:23;;;;;;;19.02;4.40;;;19.80;93.30;;;;;;5073835;28;20047;-65
2022/05/14 08:38:49;;;;;;;16.67;3.70;;;19.90;92.40;;;;;;5070057;28;20047;-63
2022/05/14 08:41:15;;;;;;;14.25;3.78;;;19.90;92.40;;;;;;5080090;28;20031;-63
2022/05/14 08:43:50;;;;;;;16.75;3.75;;;20.00;91.20;;;;;;5075557;28;20435;-63
2022/05/14 08:46:19;;;;;;;14.85;3.83;;;20.20;89.30;;;;;;5078550;28;20040;-63
2022/05/14 08:48:50;;;;;;;15.75;4.05;;;20.50;88.20;;;;;;5083285;28;20044;-66
2022/05/14 08:51:24;;;;;;;16.05;4.75;;;20.70;85.90;;;;;;5081383;28;20032;-66
2022/05/14 08:53:50;;;;;;;18.30;4.95;;;20.70;85.90;;;;;;5089062;28;20050;-64
2022/05/14 08:56:22;;;;;;;14.35;4.20;;;20.80;85.40;;;;;;5087854;28;20052;-64
2022/05/14 08:59:01;;;;;;;16.88;4.63;;;21.00;85.90;;;;;;5077801;28;20058;-65
2022/05/14 09:01:30;;;;;;;18.17;4.70;;;21.30;86.00;;;;;;5079282;28;20113;-65
2022/05/14 09:03:56;;;;;;;20.95;4.50;;;21.40;84.20;;;;;;5089032;28;20040;-63
2022/05/14 09:06:22;;;;;;;17.27;4.72;;;21.40;84.20;;;;;;5087045;28;20130;-65
2022/05/14 09:08:48;;;;;;;16.92;4.18;;;21.40;86.00;;;;;;5076451;28;20123;-65
2022/05/14 09:11:26;;;;;;;15.32;4.43;;;21.50;84.30;;;;;;5082547;28;20040;-63
2022/05/14 09:13:55;;;;;;;18.40;4.50;;;21.40;82.50;;;;;;5074266;28;20071;-65
2022/05/14 09:16:25;;;;;;;14.35;3.92;;;21.50;80.10;;;;;;5084889;28;20065;-66
2022/05/14 09:18:53;;;;;;;16.90;4.20;;;21.50;76.50;;;;;;5080153;28;20068;-64
2022/05/14 09:21:28;;;;;;;16.27;4.03;;;21.40;76.00;;;;;;5085073;28;20040;-65
2022/05/14 09:24:18;;;;;;;18.50;4.68;;;21.60;78.00;;;;;;5086117;28;20490;-64
2022/05/14 09:26:44;;;;;;;18.23;4.13;;;21.50;75.40;;;;;;5077765;28;20386;-64
2022/05/14 09:29:26;;;;;;;17.65;4.57;;;21.70;78.60;;;;;;5088686;28;20048;-65
2022/05/14 09:32:01;;;;;;;17.65;4.30;;;21.80;77.00;;;;;;5086869;28;20466;-65
2022/05/14 09:34:29;;;;;;;13.98;3.63;;;21.50;73.40;;;;;;5088518;28;20063;-66
2022/05/14 09:37:06;;;;;;;17.25;4.28;;;21.20;74.60;;;;;;5073954;28;20045;-65
2022/05/14 09:39:31;;;;;;;11.02;3.53;;;21.00;74.20;;;;;;5080436;28;20462;-65
2022/05/14 09:42:00;;;;;;;14.68;3.78;;;21.10;74.60;;;;;;5093381;28;20043;-66
2022/05/14 09:44:44;;;;;;;15.00;3.85;;;21.30;74.50;;;;;;5077732;28;20083;-65
2022/05/14 09:47:26;;;;;;;15.73;4.18;;;21.50;76.00;;;;;;5089216;28;20036;-65
2022/05/14 09:50:00;;;;;;;15.13;3.88;;;21.60;73.40;;;;;;5092411;28;20471;-66
2022/05/14 09:52:29;;;;;;;14.02;3.92;;;21.70;73.00;;;;;;5091065;28;20124;-65
2022/05/14 09:54:57;;;;;;;15.43;3.65;;;21.70;72.10;;;;;;5086228;28;20040;-65
2022/05/14 09:57:42;;;;;;;14.27;3.88;;;21.90;71.80;;;;;;5089106;28;20537;-65
2022/05/14 10:00:07;;;;;;;;;;;21.80;69.80;;;;;;5087987;28;20089;-64
2022/05/14 10:02:41;;;;;;;14.57;4.18;;;21.60;68.80;;;;;;5078450;28;19923;-65
2022/05/14 10:05:38;;;;;;;16.23;4.10;;;21.40;71.00;;;;;;5083939;28;20458;-65
2022/05/14 10:08:41;;;;;;;21.40;4.45;;;21.30;72.40;;;;;;5077504;28;20302;-64
2022/05/14 10:11:18;;;;;;;15.05;4.10;;;20.80;72.20;;;;;;5088659;28;20127;-67
2022/05/14 10:13:56;;;;;;;14.45;4.03;;;20.60;73.20;;;;;;5087559;28;20044;-65
2022/05/14 10:16:46;;;;;;;17.13;4.45;;;20.60;74.80;;;;;;5087849;28;20040;-65
2022/05/14 10:19:42;;;;;;;15.98;3.83;;;20.60;72.40;;;;;;5066513;28;20398;-63
2022/05/14 10:22:26;;;;;;;13.90;4.47;;;20.50;72.60;;;;;;5089305;28;20520;-62
2022/05/14 10:28:04;;;;;;;12.38;3.47;;;20.20;70.40;;;;;;5074795;28;20083;-64
2022/05/14 10:31:01;;;;;;;13.10;3.47;;;20.10;70.50;;;;;;5085472;28;20036;-65
2022/05/14 10:33:30;;;;;;;14.63;3.67;;;20.30;69.70;;;;;;5070368;28;20094;-65
2022/05/14 10:36:14;;;;;;;14.82;4.13;;;20.60;68.80;;;;;;5087479;28;20129;-64
2022/05/14 10:39:19;;;;;;;15.20;4.07;;;20.90;67.20;;;;;;5082106;28;20279;-65
2022/05/14 10:41:52;;;;;;;13.43;3.35;;;21.20;65.70;;;;;;5065024;28;20068;-64
2022/05/14 10:44:38;;;;;;;16.23;3.90;;;21.30;65.30;;;;;;5090845;28;20044;-65
2022/05/14 10:47:06;;;;;;;14.48;3.90;;;21.80;64.80;;;;;;5086122;28;20340;-65
2022/05/14 10:49:42;;;;;;;14.40;3.80;;;21.80;64.40;;;;;;5090714;28;20077;-64
2022/05/14 10:52:15;;;;;;;14.27;4.00;;;21.80;65.30;;;;;;5086326;28;20044;-65
2022/05/14 10:54:43;;;;;;;12.60;3.80;;;21.60;65.30;;;;;;5090269;28;20082;-67
2022/05/14 10:57:15;;;;;;;15.10;3.70;;;21.50;65.70;;;;;;5088207;28;20411;-64
2022/05/14 10:59:44;;;;;;;16.92;4.07;;;21.70;63.60;;;;;;5075639;28;20044;-65
2022/05/14 11:02:23;;;;;;;14.32;4.78;;;21.70;64.30;;;;;;5079914;28;20120;-65
2022/05/14 11:04:51;;;;;;;16.55;4.63;;;21.60;64.10;;;;;;5090793;28;20121;-65
2022/05/14 11:07:39;;;;;;;13.80;3.75;;;21.70;64.30;;;;;;5087007;28;20161;-65
2022/05/14 11:10:34;;;;;;;13.25;3.80;;;21.60;61.80;;;;;;5077205;28;20059;-65
2022/05/14 11:13:11;;;;;;;;;;;21.50;62.40;;;;;;5073413;28;20050;-64
2022/05/14 11:15:36;;;;;;;14.23;4.20;;;21.30;62.30;;;;;;5084402;28;19927;-65
2022/05/14 11:18:28;;;;;;;11.88;3.47;;;21.50;62.20;;;;;;5089892;28;20040;-65
2022/05/14 11:21:00;;;;;;;12.75;3.70;;;21.80;61.00;;;;;;5087829;28;20489;-65
2022/05/14 11:23:27;;;;;;;15.30;3.95;;;21.90;59.70;;;;;;5088139;28;20461;-65
2022/05/14 11:26:11;;;;;;;15.38;3.90;;;21.80;59.50;;;;;;5079266;28;20073;-64
2022/05/14 11:28:37;;;;;;;12.90;4.05;;;21.90;59.90;;;;;;5090001;28;20044;-65
2022/05/14 11:31:21;;;;;;;14.27;4.50;;;22.00;60.70;;;;;;5089388;28;20503;-65
2022/05/14 11:33:48;;;;;;;16.40;3.85;;;22.10;60.90;;;;;;5090492;28;20498;-65
2022/05/14 11:36:14;;;;;;;13.07;3.58;;;22.20;59.70;;;;;;5085707;28;20048;-65
2022/05/14 11:38:42;;;;;;;15.15;4.20;;;22.10;60.10;;;;;;5091279;28;20044;-64
2022/05/14 11:41:27;;;;;;;17.20;3.78;;;21.80;59.90;;;;;;5082982;28;20123;-66
2022/05/14 11:43:54;;;;;;;14.38;3.72;;;21.80;61.10;;;;;;5087651;28;20055;-65
2022/05/14 11:46:25;;;;;;;13.07;3.70;;;21.60;60.10;;;;;;5079181;28;20416;-65
2022/05/14 11:48:53;;;;;;;14.52;4.00;;;21.70;60.80;;;;;;5079979;28;20461;-65
2022/05/14 11:51:49;;;;;;;16.25;4.07;;;21.80;61.50;;;;;;5082461;28;20039;-65
2022/05/14 11:54:38;;;;;;;15.23;3.65;;;21.90;59.90;;;;;;5075597;28;20051;-64
2022/05/14 11:57:28;;;;;;;14.63;3.95;;;21.90;59.90;;;;;;5083294;28;20108;-64
2022/05/14 11:59:53;;;;;;;14.75;3.97;;;21.70;59.30;;;;;;5078566;28;20059;-66
2022/05/14 12:02:37;;;;;;;16.13;4.30;;;21.80;59.00;;;;;;5088376;28;20086;-64
2022/05/14 12:05:06;;;;;;;13.57;4.18;;;22.10;58.60;;;;;;5075165;28;20096;-65
2022/05/14 12:07:46;;;;;;;12.07;3.50;;;22.30;57.30;;;;;;5069735;28;20139;-64
2022/05/14 12:10:41;;;;;;;15.35;4.28;;;22.70;57.00;;;;;;5084222;28;20127;-63
2022/05/14 12:13:32;;;;;;;15.65;4.47;;;22.90;55.10;;;;;;5080566;28;20051;-63
2022/05/14 12:15:59;;;;;;;15.43;3.70;;;23.20;55.00;;;;;;5058728;28;20442;-64
2022/05/14 12:18:26;;;;;;;17.08;3.63;;;23.30;55.40;;;;;;5089123;28;20036;-64
2022/05/14 12:20:59;;;;;;;13.45;3.88;;;23.40;55.00;;;;;;5080702;28;20097;-64
2022/05/14 12:23:51;;;;;;;12.00;3.42;;;23.40;54.50;;;;;;5079765;28;20630;-65
2022/05/14 12:26:24;;;;;;;12.30;3.90;;;23.50;53.90;;;;;;5078017;28;20072;-64
2022/05/14 12:28:52;;;;;;;14.32;4.30;;;23.50;53.00;;;;;;5080475;28;20044;-63
2022/05/14 12:34:13;;;;;;;13.48;3.92;;;23.80;52.80;;;;;;5081353;28;20075;-66
2022/05/14 12:36:52;;;;;;;13.30;3.70;;;24.10;52.00;;;;;;5080837;28;20075;-64
2022/05/14 12:39:30;;;;;;;14.80;3.92;;;23.90;51.50;;;;;;5088018;28;20036;-64
2022/05/14 12:42:04;;;;;;;13.50;3.45;;;23.70;52.80;;;;;;5088852;28;20127;-66
2022/05/14 12:44:32;;;;;;;12.48;3.85;;;23.90;52.90;;;;;;5080992;28;20055;-64
2022/05/14 12:47:00;;;;;;;12.85;3.40;;;23.80;52.30;;;;;;5089683;28;20079;-67
2022/05/14 12:49:35;;;;;;;13.13;3.67;;;24.20;52.10;;;;;;5086057;28;20044;-65
2022/05/14 12:52:06;;;;;;;11.90;3.60;;;24.40;51.40;;;;;;5086058;28;20431;-65
2022/05/14 12:54:35;;;;;;;15.25;3.83;;;24.50;50.20;;;;;;5082516;28;20110;-65
2022/05/14 12:57:08;;;;;;;12.43;4.13;;;24.60;50.70;;;;;;5078349;28;20048;-65
2022/05/14 12:59:36;;;;;;;14.88;3.78;;;24.20;50.60;;;;;;5082480;28;20123;-64
2022/05/14 13:02:05;;;;;;;14.40;3.88;;;23.70;51.30;;;;;;5088458;28;20044;-66
2022/05/14 13:04:44;;;;;;;12.18;3.58;;;23.50;51.80;;;;;;5084814;28;20051;-64
2022/05/14 13:07:11;;;;;;;10.35;2.97;;;23.60;51.40;;;;;;5077744;28;20054;-66
2022/05/14 13:09:40;;;;;;;11.63;4.20;;;23.90;50.50;;;;;;5080121;28;20373;-65
2022/05/14 13:12:06;;;;;;;13.23;3.90;;;24.10;50.10;;;;;;5079323;28;20055;-64
2022/05/14 13:14:35;;;;;;;14.95;3.72;;;24.10;51.40;;;;;;5083847;28;20057;-64
2022/05/14 13:17:05;;;;;;;12.88;4.07;;;24.20;50.90;;;;;;5089522;28;20063;-65
2022/05/14 13:19:37;;;;;;;14.85;3.85;;;24.50;51.20;;;;;;5090910;28;20497;-64